Time;durP1;ratioP1;P1;durP2;ratioP2;P2;SDS_P1;SDS_P2;PMS_P1;PMS_P2;Temp;Humidity;BMP_temperature;BMP_pressure;BME280_temperature;BME280_humidity;BME280_pressure;Samples;Min_cycle;Max_cycle;Signal;HPM_P1;HPM_P2
2022/04/19 00:01:50;;;;;;;3.77;2.70;;;8.30;71.50;;;;;;10313784;28;20632;-80
2022/04/19 00:06:52;;;;;;;3.63;2.50;;;9.70;77.00;;;;;;10309439;28;21015;-80
2022/04/19 00:11:57;;;;;;;7.57;4.23;;;9.50;73.30;;;;;;10316932;28;20278;-80
2022/04/19 00:16:59;;;;;;;5.80;3.87;;;8.80;58.10;;;;;;10327422;28;20242;-80
2022/04/19 00:22:03;;;;;;;5.37;3.37;;;8.10;61.40;;;;;;10325255;28;20240;-80
2022/04/19 00:27:06;;;;;;;6.20;2.70;;;7.80;68.10;;;;;;10311577;28;20264;-80
2022/04/19 00:32:09;;;;;;;4.07;2.53;;;7.10;65.10;;;;;;10288007;28;20305;-80
2022/04/19 00:37:11;;;;;;;7.00;4.00;;;7.90;71.70;;;;;;10286963;28;20243;-80
2022/04/19 00:42:14;;;;;;;6.33;3.40;;;6.80;64.70;;;;;;10299637;28;20744;-80
2022/04/19 00:47:16;;;;;;;5.63;2.63;;;7.80;73.00;;;;;;10311133;28;20256;-80
2022/04/19 00:52:19;;;;;;;6.20;2.97;;;8.20;84.00;;;;;;10326861;28;20283;-80
2022/04/19 00:57:24;;;;;;;3.57;2.93;;;9.40;69.70;;;;;;10311427;28;20285;-80
2022/04/19 01:02:29;;;;;;;3.60;2.20;;;7.80;65.30;;;;;;10310850;28;20265;-80
2022/04/19 01:07:38;;;;;;;3.67;2.60;;;8.30;73.20;;;;;;10295792;28;20295;-80
2022/04/19 01:18:08;;;;;;;3.30;2.33;;;7.60;72.00;;;;;;10310005;28;20301;-80
2022/04/19 01:23:12;;;;;;;4.43;2.73;;;8.10;75.60;;;;;;10272532;28;20268;-80
2022/04/19 01:28:17;;;;;;;7.20;3.13;;;8.60;70.30;;;;;;10298649;28;20260;-80
2022/04/19 01:33:21;;;;;;;3.57;2.57;;;7.60;70.30;;;;;;10286824;28;20264;-80
2022/04/19 01:38:24;;;;;;;4.67;2.80;;;8.60;73.40;;;;;;10294927;28;20578;-80
2022/04/19 01:43:27;;;;;;;2.60;1.97;;;10.00;62.10;;;;;;10270191;28;20252;-81
2022/04/19 01:48:35;;;;;;;5.77;2.77;;;8.80;76.80;;;;;;10302979;28;20631;-81
2022/04/19 01:53:40;;;;;;;5.60;3.43;;;9.00;63.70;;;;;;10323888;28;20260;-80
2022/04/19 01:58:45;;;;;;;7.13;3.17;;;8.10;63.70;;;;;;10309177;28;20211;-81
2022/04/19 02:03:49;;;;;;;3.40;2.80;;;7.70;63.10;;;;;;10315658;28;20812;-81
2022/04/19 02:08:57;;;;;;;2.87;2.40;;;6.70;66.50;;;;;;10308646;28;20208;-81
2022/04/19 02:13:59;;;;;;;5.63;2.90;;;7.50;73.90;;;;;;10325070;28;20259;-81
2022/04/19 02:19:09;;;;;;;5.00;3.17;;;7.60;79.10;;;;;;10302922;28;20339;-80
2022/04/19 02:24:12;;;;;;;5.20;3.00;;;6.20;70.40;;;;;;10268866;28;20262;-81
2022/04/19 02:29:16;;;;;;;2.87;2.40;;;7.20;72.40;;;;;;10292305;28;20235;-80
2022/04/19 02:34:23;;;;;;;5.13;2.73;;;7.50;67.60;;;;;;10308647;28;20296;-81
2022/04/19 02:39:25;;;;;;;5.33;3.07;;;5.50;69.00;;;;;;10289776;28;20230;-81
2022/04/19 02:44:28;;;;;;;3.73;2.40;;;6.20;69.30;;;;;;10275517;28;20651;-81
2022/04/19 02:49:41;;;;;;;3.83;2.60;;;7.10;89.30;;;;;;10276753;28;20703;-81
2022/04/19 02:54:44;;;;;;;2.87;2.00;;;9.20;69.70;;;;;;10315780;28;20710;-81
2022/04/19 02:59:46;;;;;;;4.03;2.83;;;10.10;82.60;;;;;;10314561;28;20764;-81
2022/04/19 03:04:49;;;;;;;4.03;2.73;;;10.50;67.20;;;;;;10314791;28;20260;-81
2022/04/19 03:09:52;;;;;;;3.30;2.13;;;10.60;71.30;;;;;;10313333;28;20283;-81
2022/04/19 03:14:55;;;;;;;2.27;1.83;;;11.50;72.70;;;;;;10314341;28;20264;-81
2022/04/19 03:19:58;;;;;;;4.23;2.70;;;11.60;76.90;;;;;;10315302;28;20631;-81
2022/04/19 03:30:24;;;;;;;5.97;2.60;;;11.60;72.80;;;;;;10313845;28;20229;-81
2022/04/19 03:35:28;;;;;;;5.27;3.50;;;11.40;65.60;;;;;;10283441;28;20208;-81
2022/04/19 03:40:30;;;;;;;6.43;3.80;;;9.70;67.50;;;;;;10298086;28;20300;-81
2022/04/19 03:45:33;;;;;;;2.07;1.67;;;10.20;65.20;;;;;;10287356;28;20706;-80
2022/04/19 03:50:37;;;;;;;5.33;3.90;;;10.30;82.60;;;;;;10269401;28;20351;-80
2022/04/19 03:55:39;;;;;;;3.10;1.90;;;9.20;74.10;;;;;;10263822;28;20696;-80
2022/04/19 04:00:43;;;;;;;4.87;2.87;;;9.60;86.90;;;;;;10244021;28;20280;-80
2022/04/19 04:05:45;;;;;;;3.67;2.90;;;9.20;70.80;;;;;;10233746;29;20273;-80
2022/04/19 04:10:48;;;;;;;3.27;2.80;;;8.90;73.00;;;;;;10247862;28;20292;-80
2022/04/19 04:15:51;;;;;;;4.00;3.03;;;9.70;79.00;;;;;;10256911;28;20280;-80
2022/04/19 04:20:54;;;;;;;6.90;5.67;;;8.70;82.80;;;;;;10242084;28;20702;-80
2022/04/19 04:25:57;;;;;;;5.00;3.00;;;8.50;66.50;;;;;;10217737;29;20330;-80
2022/04/19 04:31:00;;;;;;;3.67;3.33;;;8.20;77.30;;;;;;10258311;28;20244;-80
2022/04/19 04:36:04;;;;;;;4.57;3.20;;;8.80;83.40;;;;;;10232877;28;20647;-80
2022/04/19 04:41:09;;;;;;;5.90;2.50;;;9.40;75.80;;;;;;10266529;28;20311;-80
2022/04/19 04:51:33;;;;;;;5.37;4.00;;;11.80;78.80;;;;;;10267842;28;20260;-80
2022/04/19 04:56:36;;;;;;;8.10;2.87;;;11.90;64.10;;;;;;10292629;28;20253;-80
2022/04/19 05:01:39;;;;;;;7.70;3.87;;;10.60;74.60;;;;;;10288193;28;20241;-80
2022/04/19 05:06:42;;;;;;;7.90;3.83;;;13.20;66.60;;;;;;10291595;28;20319;-80
2022/04/19 05:11:50;;;;;;;4.43;3.23;;;13.60;63.20;;;;;;10297445;28;20245;-80
2022/04/19 05:16:54;;;;;;;5.93;4.43;;;12.90;58.30;;;;;;10305738;28;20249;-80
2022/04/19 05:21:57;;;;;;;4.47;3.97;;;10.50;63.10;;;;;;10306950;28;20245;-80
2022/04/19 05:26:59;;;;;;;4.27;3.50;;;8.90;69.90;;;;;;10279038;28;20261;-80
2022/04/19 05:32:02;;;;;;;7.53;4.23;;;7.20;76.90;;;;;;10279143;28;20254;-81
2022/04/19 05:37:04;;;;;;;11.00;4.90;;;8.50;71.30;;;;;;10282587;28;20307;-80
2022/04/19 05:42:07;;;;;;;6.10;3.60;;;9.60;74.00;;;;;;10286366;28;20214;-81
2022/04/19 05:47:10;;;;;;;5.27;3.87;;;10.70;69.90;;;;;;10304322;28;20322;-81
2022/04/19 05:52:14;;;;;;;9.57;4.27;;;9.80;67.40;;;;;;10273851;28;20296;-80
2022/04/19 05:57:19;;;;;;;3.77;3.37;;;8.40;74.60;;;;;;10269463;28;20255;-81
2022/04/19 06:07:47;;;;;;;7.17;4.77;;;7.10;80.80;;;;;;10286736;28;20259;-80
2022/04/19 06:12:49;;;;;;;4.63;3.60;;;7.90;77.30;;;;;;10269998;28;20250;-80
2022/04/19 06:17:52;;;;;;;8.87;3.83;;;7.40;77.00;;;;;;10295912;28;20479;-80
2022/04/19 06:23:13;;;;;;;6.30;3.80;;;;;;;;;;10318219;28;20342;-80
2022/04/19 06:28:17;;;;;;;10.00;6.87;;;6.80;92.40;;;;;;10279451;28;20261;-81
2022/04/19 06:33:38;;;;;;;2.27;1.93;;;9.30;75.70;;;;;;10304449;28;20238;-81
2022/04/19 06:38:42;;;;;;;4.67;2.97;;;11.20;77.10;;;;;;10276334;28;20314;-81
2022/04/19 06:43:44;;;;;;;6.97;4.07;;;11.30;71.00;;;;;;10331265;28;20249;-81
2022/04/19 06:48:56;;;;;;;8.43;4.57;;;10.40;68.60;;;;;;10317879;28;20268;-81
2022/04/19 06:53:58;;;;;;;7.70;4.77;;;8.10;73.70;;;;;;10313267;28;20261;-81
2022/04/19 06:59:14;;;;;;;9.20;4.53;;;7.20;78.90;;;;;;10331339;28;20252;-81
2022/04/19 07:04:17;;;;;;;5.30;3.70;;;9.40;74.50;;;;;;10284207;28;20247;-81
2022/04/19 07:09:26;;;;;;;8.53;4.67;;;10.00;78.80;;;;;;10311773;28;20677;-81
2022/04/19 07:14:29;;;;;;;5.93;4.90;;;10.00;74.70;;;;;;10295229;28;20287;-81
2022/04/19 07:26:37;;;;;;;6.40;5.07;;;10.00;71.30;;;;;;10283424;28;20294;-81
2022/04/19 07:30:22;;;;;;;3.80;2.80;;;8.40;84.90;;;;;;10297750;28;20275;-81
2022/04/19 07:35:26;;;;;;;3.30;2.77;;;11.70;73.70;;;;;;10290336;28;20801;-81
2022/04/19 07:40:30;;;;;;;5.70;3.87;;;11.40;75.90;;;;;;10302219;28;20633;-81
2022/04/19 07:45:33;;;;;;;8.23;3.87;;;12.30;72.10;;;;;;10295406;28;20669;-81
2022/04/19 07:50:35;;;;;;;8.37;6.23;;;12.70;69.90;;;;;;10293677;28;20712;-81
2022/04/19 07:55:38;;;;;;;8.43;4.93;;;10.80;70.20;;;;;;10313014;28;20626;-81
2022/04/19 08:00:42;;;;;;;10.00;5.20;;;9.60;71.50;;;;;;10274290;28;20323;-81
2022/04/19 08:05:45;;;;;;;7.73;4.47;;;10.60;71.70;;;;;;10287567;28;20782;-81
2022/04/19 08:10:49;;;;;;;2.53;1.83;;;10.60;72.40;;;;;;10275435;28;20295;-81
2022/04/19 08:15:52;;;;;;;3.00;2.63;;;13.00;71.80;;;;;;10255878;28;20392;-81
2022/04/19 08:20:55;;;;;;;7.03;4.60;;;13.30;68.70;;;;;;10272648;28;20272;-81
2022/04/19 08:25:57;;;;;;;3.50;3.07;;;12.50;70.00;;;;;;10306602;28;20264;-81
2022/04/19 08:31:02;;;;;;;7.20;4.17;;;13.80;67.50;;;;;;10309006;28;20248;-80
2022/04/19 08:36:07;;;;;;;2.70;2.27;;;14.20;65.90;;;;;;10322644;28;20271;-80
2022/04/19 08:41:10;;;;;;;4.23;3.43;;;14.40;66.60;;;;;;10260271;28;20701;-81
2022/04/19 08:46:17;;;;;;;6.63;3.50;;;14.50;67.30;;;;;;10270829;28;20296;-80
2022/04/19 08:51:21;;;;;;;2.70;2.17;;;15.10;65.10;;;;;;10270995;28;20257;-80
2022/04/19 09:01:44;;;;;;;3.10;2.57;;;15.10;65.50;;;;;;10274724;28;20691;-81
2022/04/19 09:06:54;;;;;;;4.40;3.57;;;15.10;65.40;;;;;;10257364;28;20383;-80
2022/04/19 09:12:12;;;;;;;6.30;5.37;;;14.90;62.60;;;;;;10256196;28;20312;-81
2022/04/19 09:17:14;;;;;;;7.87;5.17;;;14.90;67.00;;;;;;10264197;28;20240;-81
2022/04/19 09:22:25;;;;;;;5.40;4.87;;;14.60;65.80;;;;;;10264965;28;20246;-81
2022/04/19 09:27:32;;;;;;;7.00;4.50;;;15.20;65.80;;;;;;10269520;28;20335;-81
2022/04/19 09:32:35;;;;;;;7.80;5.10;;;15.20;64.60;;;;;;10243783;28;20241;-81
2022/04/19 09:37:47;;;;;;;4.57;3.87;;;15.30;64.70;;;;;;10247409;28;20241;-81
2022/04/19 09:42:54;;;;;;;5.93;3.93;;;15.30;62.60;;;;;;10287089;28;20299;-82
2022/04/19 09:47:58;;;;;;;7.17;4.40;;;15.40;61.40;;;;;;10270000;28;20947;-81
2022/04/19 09:53:01;;;;;;;4.40;3.80;;;15.10;62.00;;;;;;10312521;28;20265;-82
2022/04/19 09:58:04;;;;;;;4.40;4.00;;;15.40;63.60;;;;;;10286207;28;20305;-82
2022/04/19 10:08:38;;;;;;;8.23;4.57;;;14.30;59.80;;;;;;10302768;28;20800;-81
2022/04/19 10:13:41;;;;;;;4.27;3.87;;;14.30;63.20;;;;;;10295418;28;20273;-82
2022/04/19 10:18:46;;;;;;;7.73;4.10;;;13.90;67.50;;;;;;10305994;28;20307;-82
2022/04/19 10:23:50;;;;;;;6.40;5.70;;;14.70;64.20;;;;;;10268533;28;20295;-82
2022/04/19 10:28:54;;;;;;;4.00;3.37;;;13.30;63.00;;;;;;10281665;28;20252;-81
2022/04/19 10:34:02;;;;;;;8.33;3.73;;;13.30;70.00;;;;;;10325106;28;20244;-81
2022/04/19 10:39:16;;;;;;;4.13;3.70;;;14.10;59.50;;;;;;10307965;28;20659;-81
2022/04/19 10:44:41;;;;;;;6.83;4.07;;;14.30;66.30;;;;;;10325537;28;20319;-81
2022/04/19 10:49:55;;;;;;;5.30;4.80;;;15.20;59.00;;;;;;10270053;28;20328;-82
2022/04/19 10:55:06;;;;;;;3.50;3.20;;;13.80;62.10;;;;;;10245734;28;20274;-81
2022/04/19 11:00:23;;;;;;;3.70;3.10;;;14.80;65.30;;;;;;10228999;29;20238;-81
2022/04/19 11:05:47;;;;;;;4.73;3.60;;;15.10;64.10;;;;;;10227726;28;20639;-81
2022/04/19 11:11:22;;;;;;;4.20;3.33;;;15.30;62.00;;;;;;10282972;28;20955;-81
2022/04/19 11:16:50;;;;;;;3.97;3.17;;;15.60;63.10;;;;;;10270629;28;20301;-81
2022/04/19 11:21:56;;;;;;;7.67;3.97;;;14.30;62.80;;;;;;10254955;28;20233;-80
2022/04/19 11:26:59;;;;;;;4.27;3.53;;;14.10;63.70;;;;;;10234987;29;20257;-81
2022/04/19 11:32:01;;;;;;;5.00;3.73;;;14.90;63.00;;;;;;10267039;28;20297;-82
2022/04/19 11:37:05;;;;;;;4.20;3.80;;;14.70;58.90;;;;;;10261237;28;20245;-81
2022/04/19 11:47:48;;;;;;;3.30;3.00;;;15.30;63.70;;;;;;10266423;28;20666;-82
2022/04/19 11:52:51;;;;;;;5.87;3.57;;;15.30;58.00;;;;;;10274839;28;20257;-82
2022/04/19 11:58:05;;;;;;;3.17;2.80;;;15.20;52.70;;;;;;10266763;28;20297;-82
2022/04/19 12:03:34;;;;;;;3.33;3.03;;;15.40;63.40;;;;;;10278981;28;20246;-82
2022/04/19 12:08:44;;;;;;;3.17;2.87;;;15.60;63.00;;;;;;10279826;28;20823;-82
2022/04/19 12:13:48;;;;;;;2.63;2.37;;;15.50;63.30;;;;;;10249024;28;20659;-82
2022/04/19 12:18:55;;;;;;;4.30;2.63;;;15.40;57.60;;;;;;10249123;29;20367;-82
2022/04/19 12:23:58;;;;;;;2.77;2.57;;;15.80;61.70;;;;;;10259677;28;20674;-82
2022/04/19 12:29:13;;;;;;;3.27;2.97;;;15.40;63.10;;;;;;10280742;28;20318;-82
2022/04/19 12:34:15;;;;;;;3.93;3.23;;;15.60;58.30;;;;;;10276500;28;20238;-81
2022/04/19 12:39:22;;;;;;;4.20;3.80;;;15.50;51.40;;;;;;10275371;28;20234;-82
2022/04/19 12:44:25;;;;;;;4.60;3.47;;;13.80;54.80;;;;;;10278940;28;20252;-81
2022/04/19 12:49:32;;;;;;;4.10;3.20;;;12.80;59.20;;;;;;10280725;28;20261;-81
2022/04/19 12:54:37;;;;;;;4.40;4.00;;;12.40;56.70;;;;;;10309128;28;20237;-81
2022/04/19 12:59:40;;;;;;;3.97;3.43;;;13.20;58.90;;;;;;10300137;28;20268;-81
2022/04/19 13:04:43;;;;;;;4.17;3.77;;;14.50;55.80;;;;;;10290842;28;20284;-82
2022/04/19 13:15:07;;;;;;;4.83;4.43;;;13.40;51.10;;;;;;10299502;28;20267;-81
2022/04/19 13:20:11;;;;;;;3.27;2.90;;;13.80;55.40;;;;;;10316113;28;20682;-82
2022/04/19 13:25:13;;;;;;;4.87;4.47;;;14.20;66.30;;;;;;10315715;28;20303;-81
2022/04/19 13:30:19;;;;;;;2.40;2.20;;;14.20;60.90;;;;;;10272769;28;20315;-81
2022/04/19 13:35:22;;;;;;;11.63;6.47;;;14.80;64.90;;;;;;10296748;28;20229;-82
2022/04/19 13:40:26;;;;;;;3.07;2.73;;;13.60;53.90;;;;;;10309428;28;20241;-82
2022/04/19 13:45:29;;;;;;;5.27;4.87;;;14.30;65.40;;;;;;10303208;28;20244;-82
2022/04/19 13:50:31;;;;;;;3.27;3.07;;;14.90;56.00;;;;;;10312553;28;20555;-82
2022/04/19 13:55:34;;;;;;;2.50;2.30;;;15.20;59.00;;;;;;10284884;28;20307;-82
2022/04/19 14:00:37;;;;;;;5.07;3.60;;;14.80;63.40;;;;;;10269887;28;20242;-82
2022/04/19 14:05:40;;;;;;;6.10;5.60;;;14.80;60.00;;;;;;10270110;28;20241;-82
2022/04/19 14:10:42;;;;;;;4.33;3.97;;;14.20;58.80;;;;;;10285604;28;20707;-82
2022/04/19 14:15:45;;;;;;;17.97;7.77;;;14.30;58.30;;;;;;10297669;28;20240;-82
2022/04/19 14:20:48;;;;;;;4.50;4.10;;;13.80;56.50;;;;;;10313908;28;20234;-83
2022/04/19 14:25:51;;;;;;;6.90;6.30;;;13.40;64.90;;;;;;10253531;28;20249;-82
2022/04/19 14:36:14;;;;;;;8.07;5.07;;;13.80;67.40;;;;;;10308604;28;20213;-81
2022/04/19 14:41:21;;;;;;;6.30;5.80;;;13.30;59.20;;;;;;10325047;28;20667;-82
2022/04/19 14:46:30;;;;;;;3.73;3.40;;;12.70;55.40;;;;;;10289053;28;20268;-82
2022/04/19 14:56:55;;;;;;;6.57;5.37;;;14.10;54.20;;;;;;10306076;28;20261;-80
2022/04/19 15:01:58;;;;;;;4.57;4.17;;;12.20;55.70;;;;;;10314682;28;20197;-80
2022/04/19 15:07:02;;;;;;;3.53;3.23;;;12.40;60.10;;;;;;10297318;28;20241;-80
2022/04/19 15:12:05;;;;;;;3.77;3.47;;;13.30;66.40;;;;;;10315912;28;20246;-80
2022/04/19 15:17:08;;;;;;;8.17;5.80;;;14.00;64.40;;;;;;10309762;28;20261;-81
2022/04/19 15:22:12;;;;;;;4.13;3.53;;;14.20;61.90;;;;;;10307198;28;20237;-81
2022/04/19 15:27:20;;;;;;;6.50;4.50;;;14.10;56.90;;;;;;10314055;28;20280;-80
2022/04/19 15:32:23;;;;;;;3.40;3.10;;;12.10;61.00;;;;;;10305570;28;20264;-81
2022/04/19 15:37:26;;;;;;;3.30;3.00;;;14.60;63.10;;;;;;10330438;28;20250;-80
2022/04/19 15:42:29;;;;;;;4.40;4.00;;;15.40;61.10;;;;;;10318737;28;20226;-80
2022/04/19 15:47:32;;;;;;;5.07;4.60;;;14.00;51.40;;;;;;10279872;28;20230;-80
2022/04/19 15:52:34;;;;;;;4.83;4.37;;;11.60;54.70;;;;;;10307618;28;20221;-80
2022/04/19 15:57:37;;;;;;;4.90;4.23;;;11.20;55.50;;;;;;10312287;28;20304;-80
2022/04/19 16:02:39;;;;;;;3.77;3.47;;;12.00;55.70;;;;;;10329657;28;20201;-81
2022/04/19 16:07:42;;;;;;;3.93;3.53;;;12.60;62.00;;;;;;10349143;28;20216;-81
2022/04/19 16:12:45;;;;;;;4.17;3.77;;;13.50;64.50;;;;;;10364058;28;20237;-81
2022/04/19 16:23:22;;;;;;;3.13;2.77;;;14.70;64.10;;;;;;10363569;28;20229;-81
2022/04/19 16:28:27;;;;;;;4.60;3.97;;;15.10;63.20;;;;;;10340211;28;20207;-81
2022/04/19 16:33:29;;;;;;;4.40;4.00;;;15.20;62.90;;;;;;10347357;28;20193;-81
2022/04/19 16:38:32;;;;;;;3.40;2.47;;;15.30;61.80;;;;;;10358111;28;20183;-81
2022/04/19 16:43:36;;;;;;;2.63;2.43;;;14.90;64.00;;;;;;10352692;28;20185;-81
2022/04/19 16:48:39;;;;;;;3.17;2.73;;;15.30;63.50;;;;;;9644707;28;10000726;-81
2022/04/19 16:53:41;;;;;;;6.03;4.17;;;15.70;63.00;;;;;;10323643;28;20209;-81
2022/04/19 16:58:44;;;;;;;4.37;3.70;;;15.80;54.20;;;;;;10322716;28;20190;-81
2022/04/19 17:03:59;;;;;;;4.00;3.60;;;15.50;56.70;;;;;;10321791;28;20212;-81
2022/04/19 17:09:09;;;;;;;4.27;3.27;;;15.50;58.30;;;;;;10322391;28;20248;-80
2022/04/19 17:14:13;;;;;;;4.40;3.47;;;15.60;58.40;;;;;;10338200;28;20179;-82
2022/04/19 17:19:16;;;;;;;4.97;3.10;;;15.40;58.70;;;;;;10345010;28;20201;-81
2022/04/19 17:24:18;;;;;;;3.87;3.30;;;15.30;59.30;;;;;;10336940;28;20186;-81
2022/04/19 17:29:21;;;;;;;15.53;7.93;;;15.20;59.90;;;;;;10340675;28;20209;-81
2022/04/19 17:34:27;;;;;;;3.33;2.97;;;13.60;56.30;;;;;;10377450;28;20196;-81
2022/04/19 17:39:29;;;;;;;9.63;5.60;;;12.60;67.00;;;;;;10337127;28;20192;-81
2022/04/19 17:44:32;;;;;;;8.23;5.83;;;12.00;61.30;;;;;;10337710;28;20221;-81
2022/04/19 17:49:35;;;;;;;11.03;7.37;;;11.30;65.50;;;;;;10328411;28;20248;-81
2022/04/19 17:59:59;;;;;;;12.03;9.00;;;9.10;69.50;;;;;;10335373;28;20205;-81
2022/04/19 18:05:01;;;;;;;16.03;12.30;;;9.40;71.40;;;;;;10336725;28;20194;-81
2022/04/19 18:10:06;;;;;;;19.77;13.60;;;9.40;72.70;;;;;;10320379;28;20218;-81
2022/04/19 18:15:08;;;;;;;18.63;13.30;;;8.90;73.80;;;;;;10330964;28;20294;-80
2022/04/19 18:20:11;;;;;;;20.00;13.53;;;8.60;73.20;;;;;;10299200;28;20282;-81
2022/04/19 18:25:14;;;;;;;14.40;10.50;;;8.20;73.00;;;;;;10304442;28;20578;-81
2022/04/19 18:30:17;;;;;;;18.67;11.43;;;8.30;76.90;;;;;;10294328;28;20788;-81
2022/04/19 18:35:20;;;;;;;12.27;7.13;;;8.60;78.40;;;;;;10318392;28;20209;-82
2022/04/19 18:40:23;;;;;;;12.77;6.10;;;8.60;80.20;;;;;;10300813;28;20733;-82
2022/04/19 18:45:26;;;;;;;26.67;16.40;;;9.30;80.10;;;;;;10299912;28;20591;-82
2022/04/19 18:50:28;;;;;;;23.87;15.13;;;8.30;72.90;;;;;;10310958;28;20244;-84
2022/04/19 18:55:31;;;;;;;6.43;5.47;;;6.90;90.00;;;;;;10318627;28;20233;-83
2022/04/19 19:00:33;;;;;;;15.73;9.37;;;8.60;93.90;;;;;;10314248;28;20267;-84
2022/04/19 19:05:38;;;;;;;12.20;7.17;;;9.70;90.10;;;;;;10311033;28;20213;-83
2022/04/19 19:10:41;;;;;;;5.80;5.07;;;10.10;87.50;;;;;;10304831;28;20284;-82
2022/04/19 19:15:43;;;;;;;7.80;5.67;;;10.80;84.90;;;;;;10285021;28;20210;-82
2022/04/19 19:20:46;;;;;;;10.30;7.33;;;11.20;82.00;;;;;;10311560;28;20214;-83
2022/04/19 19:25:49;;;;;;;6.37;5.50;;;11.40;80.30;;;;;;10326602;28;20213;-82
2022/04/19 19:30:51;;;;;;;7.80;5.97;;;11.80;79.20;;;;;;10318839;28;20237;-82
2022/04/19 19:35:54;;;;;;;9.53;7.20;;;11.60;78.40;;;;;;10312186;28;20236;-82
2022/04/19 19:40:56;;;;;;;29.37;17.07;;;11.50;78.80;;;;;;10298152;28;20212;-82
2022/04/19 19:45:59;;;;;;;22.23;12.37;;;11.30;77.40;;;;;;10319846;28;20205;-83
2022/04/19 19:51:02;;;;;;;23.90;13.07;;;11.20;79.20;;;;;;10306750;28;20233;-83
2022/04/19 19:56:06;;;;;;;17.03;10.60;;;11.40;78.60;;;;;;10260452;28;20761;-83
2022/04/19 20:01:09;;;;;;;15.30;7.97;;;11.60;78.50;;;;;;10301738;28;20240;-82
2022/04/19 20:06:12;;;;;;;13.00;8.77;;;11.80;77.80;;;;;;10292712;28;20217;-83
2022/04/19 20:11:15;;;;;;;44.40;21.07;;;11.60;78.00;;;;;;10291569;28;20241;-83
2022/04/19 20:16:18;;;;;;;21.37;12.60;;;11.40;77.40;;;;;;10299927;28;20232;-83
2022/04/19 20:21:20;;;;;;;26.83;13.53;;;11.50;78.50;;;;;;10305236;28;20288;-83
2022/04/19 20:26:23;;;;;;;28.07;16.07;;;11.50;78.30;;;;;;10300087;28;20249;-83
2022/04/19 20:31:26;;;;;;;25.23;12.80;;;11.30;78.20;;;;;;10306773;28;20380;-83
2022/04/19 20:36:28;;;;;;;15.73;8.63;;;11.50;78.80;;;;;;10277919;28;20258;-83
2022/04/19 20:41:31;;;;;;;13.00;8.30;;;11.70;78.70;;;;;;10301698;28;20277;-83
2022/04/19 20:51:55;;;;;;;54.40;22.87;;;12.00;76.00;;;;;;10309428;28;20256;-83
2022/04/19 20:57:01;;;;;;;13.60;8.57;;;11.80;77.30;;;;;;10307139;28;20241;-83
2022/04/19 21:02:04;;;;;;;24.30;13.93;;;12.30;76.90;;;;;;10294471;28;20241;-83
2022/04/19 21:07:07;;;;;;;58.97;31.63;;;12.40;75.60;;;;;;10296261;28;20240;-83
2022/04/19 21:12:10;;;;;;;47.90;22.43;;;12.20;74.80;;;;;;10300257;28;20307;-83
2022/04/19 21:17:13;;;;;;;56.77;29.57;;;11.90;75.70;;;;;;10309369;28;20229;-82
2022/04/19 21:22:16;;;;;;;23.73;13.77;;;11.00;76.40;;;;;;10298664;28;20228;-83
2022/04/19 21:27:18;;;;;;;31.63;16.90;;;11.20;80.60;;;;;;10310120;28;20717;-83
2022/04/19 21:32:21;;;;;;;65.33;32.53;;;10.20;80.10;;;;;;10305414;28;20784;-83
2022/04/19 21:37:23;;;;;;;44.87;27.70;;;9.50;72.90;;;;;;10308235;28;20300;-83
2022/04/19 21:42:26;;;;;;;9.80;6.80;;;9.90;73.80;;;;;;10305070;28;20282;-82
2022/04/19 21:47:28;;;;;;;32.93;20.50;;;11.50;80.10;;;;;;10304281;28;20233;-82
2022/04/19 21:52:31;;;;;;;15.63;11.07;;;12.50;66.30;;;;;;10305748;28;20264;-83
2022/04/19 21:57:33;;;;;;;15.30;8.13;;;11.10;77.00;;;;;;10300663;28;20230;-83
2022/04/19 22:02:36;;;;;;;25.43;16.63;;;11.00;79.10;;;;;;10284708;28;20216;-83
2022/04/19 22:07:38;;;;;;;11.73;8.10;;;10.30;74.00;;;;;;10301936;28;20245;-83
2022/04/19 22:12:41;;;;;;;8.77;6.67;;;11.00;81.00;;;;;;10287808;28;20257;-83
2022/04/19 22:17:43;;;;;;;34.70;18.93;;;12.10;77.90;;;;;;10277895;28;20628;-82
2022/04/19 22:22:46;;;;;;;11.90;8.97;;;12.90;73.10;;;;;;10289653;28;20274;-82
2022/04/19 22:27:48;;;;;;;11.47;7.47;;;12.10;69.00;;;;;;10302998;28;20237;-83
2022/04/19 22:32:51;;;;;;;8.43;7.23;;;11.70;76.10;;;;;;10304902;28;20334;-83
2022/04/19 22:37:53;;;;;;;10.70;7.50;;;11.40;77.20;;;;;;10320318;28;20244;-83
2022/04/19 22:42:56;;;;;;;20.43;13.23;;;12.40;75.70;;;;;;10325947;28;20238;-83
2022/04/19 22:48:00;;;;;;;14.93;9.00;;;10.70;72.70;;;;;;10309254;28;20252;-83
2022/04/19 22:53:02;;;;;;;16.87;9.50;;;11.80;75.80;;;;;;10296561;28;20292;-83
2022/04/19 22:58:05;;;;;;;9.97;7.80;;;12.20;77.00;;;;;;10287031;28;20233;-83
2022/04/19 23:03:07;;;;;;;25.33;15.10;;;12.50;74.70;;;;;;10294435;28;20311;-83
2022/04/19 23:08:10;;;;;;;23.43;15.60;;;10.70;71.80;;;;;;10300889;28;20288;-83
2022/04/19 23:13:12;;;;;;;17.67;11.97;;;11.60;74.00;;;;;;10292977;28;20257;-83
2022/04/19 23:18:15;;;;;;;20.07;13.60;;;9.80;83.70;;;;;;10299468;28;20259;-83
2022/04/19 23:23:17;;;;;;;19.70;12.23;;;10.20;80.10;;;;;;10334008;28;20216;-83
2022/04/19 23:28:20;;;;;;;21.93;14.10;;;10.80;81.10;;;;;;10309085;28;20280;-83
2022/04/19 23:33:22;;;;;;;21.40;13.60;;;10.70;81.60;;;;;;10320332;28;20713;-83
2022/04/19 23:38:25;;;;;;;11.57;8.23;;;10.50;83.00;;;;;;10332925;28;20237;-83
2022/04/19 23:43:27;;;;;;;20.63;14.10;;;11.20;82.10;;;;;;10282490;28;20282;-83
2022/04/19 23:48:30;;;;;;;14.37;11.77;;;8.70;83.40;;;;;;10305529;28;20318;-83
2022/04/19 23:53:32;;;;;;;12.57;9.47;;;9.70;83.70;;;;;;10317461;28;20328;-83
2022/04/19 23:58:34;;;;;;;16.27;11.67;;;10.10;82.70;;;;;;10312936;28;20217;-83
